Aérodrome :
LOGIN :

S'inscrire | Disclaimer

   EN    FR    IT 

 










Légende :    VFR   VFR Marginal   IFR   IFR Intensif   IFR Très Intensif
Visi : 
Plafond : 
>= 8 km
>= 3000ft
5 à 8 km
1000 à 3000 ft
1500m à 5 km
500 à 1000 ft
800 à 1500m
200 à 500 ft
< 800m
< 200 ft
Symboles :   Orages  Brouillard  Fortes neiges  Fortes précipitations  Vent > 20 kt
SIGMETs :   Divers  Orages  Givrage  Turbulence  Onde Orograph.  Cendres Volcan.







- Altitude de l'aérodrome : 30 ft
- Code IATA : CFN


EIDL - Donegal

DERNIER METAR :
  • 301200Z 13024G36KT CAVOK 14/07 Q0996

METARs EXPIRÉS :
  • 301130Z 13026G36KT CAVOK 14/07 Q0996
  • 301100Z 13025G36KT CAVOK 13/06 Q0996
  • 301030Z 12023G34KT 9999 FEW033 14/07 Q0996

TAF TAF EIDL
Valide du 30 à 12h jusqu'au 30 à 21h UTC


301100Z 3012/3021 11022G32KT 9999 SCT040
BECMG 3016/3019 12013KT
BECMG 3019/3021 09010KT
Pas de NOTAMs connus pour ce terrain.
1 SIGMET publié pour la FIR Shannon (EISN) :
 
Turbulence forte
EISN SIGMET 01 VALID 301020/301420 EINN
EISN SHANNON FIR SEV TURB FCST WI N5400 W01420 - N5130 W01130 - N5130 W00955 - N5100 W00955 - N5100 W01500 - N5400 W01500 - N5400 W01420 SFC/FL060 MOV E AT 5KT NC=



MET'MAP, la Météo Aéronautique d'un coup d'oeil ! - Copyright ORBIFLY Décembre 2007 - Disclaimer

ORBIFLY MET'MAP TEAM :

Programmation & Développement : Alexandra Zaïnal
Conception & Développement : Baudouin d'Aumeries
Co-Programmation & Développement : Marc-Olivier Méhu
Soutien technique & logistique : Manuel Goepfert

Contact : metmap@orbifly.com




SOURCES & CREDITS :

   NOAA